sensor_id;sensor_type;location;lat;lon;timestamp;P1;durP1;ratioP1;P2;durP2;ratioP2
16330;SDS011;8275;48.206;16.340;2022-11-09T00:01:24;18.98;;;16.17;;
16330;SDS011;8275;48.206;16.340;2022-11-09T00:03:55;26.48;;;17.95;;
16330;SDS011;8275;48.206;16.340;2022-11-09T00:06:25;17.52;;;15.45;;
16330;SDS011;8275;48.206;16.340;2022-11-09T00:08:57;18.50;;;15.07;;
16330;SDS011;8275;48.206;16.340;2022-11-09T00:11:32;18.75;;;15.20;;
16330;SDS011;8275;48.206;16.340;2022-11-09T00:14:01;19.67;;;14.75;;
16330;SDS011;8275;48.206;16.340;2022-11-09T00:16:30;19.13;;;14.35;;
16330;SDS011;8275;48.206;16.340;2022-11-09T00:18:58;19.67;;;17.65;;
16330;SDS011;8275;48.206;16.340;2022-11-09T00:21:27;16.33;;;14.60;;
16330;SDS011;8275;48.206;16.340;2022-11-09T00:23:56;17.65;;;14.68;;
16330;SDS011;8275;48.206;16.340;2022-11-09T00:26:25;19.80;;;16.17;;
16330;SDS011;8275;48.206;16.340;2022-11-09T00:28:54;22.15;;;16.10;;
16330;SDS011;8275;48.206;16.340;2022-11-09T00:31:23;18.38;;;14.38;;
16330;SDS011;8275;48.206;16.340;2022-11-09T00:33:52;21.27;;;14.32;;
16330;SDS011;8275;48.206;16.340;2022-11-09T00:36:23;18.27;;;13.55;;
16330;SDS011;8275;48.206;16.340;2022-11-09T00:38:53;24.73;;;15.90;;
16330;SDS011;8275;48.206;16.340;2022-11-09T00:41:25;21.50;;;15.40;;
16330;SDS011;8275;48.206;16.340;2022-11-09T00:43:54;23.25;;;15.48;;
16330;SDS011;8275;48.206;16.340;2022-11-09T00:46:23;22.10;;;15.07;;
16330;SDS011;8275;48.206;16.340;2022-11-09T00:48:52;18.45;;;15.35;;
16330;SDS011;8275;48.206;16.340;2022-11-09T00:51:22;27.30;;;14.73;;
16330;SDS011;8275;48.206;16.340;2022-11-09T00:53:50;22.77;;;17.02;;
16330;SDS011;8275;48.206;16.340;2022-11-09T00:56:21;21.15;;;17.42;;
16330;SDS011;8275;48.206;16.340;2022-11-09T00:58:51;23.90;;;16.17;;
16330;SDS011;8275;48.206;16.340;2022-11-09T01:01:21;18.45;;;15.40;;
16330;SDS011;8275;48.206;16.340;2022-11-09T01:03:50;22.08;;;17.00;;
16330;SDS011;8275;48.206;16.340;2022-11-09T01:06:19;25.75;;;16.52;;
16330;SDS011;8275;48.206;16.340;2022-11-09T01:08:49;21.17;;;17.45;;
16330;SDS011;8275;48.206;16.340;2022-11-09T01:11:18;19.27;;;16.65;;
16330;SDS011;8275;48.206;16.340;2022-11-09T01:13:49;23.55;;;16.83;;
16330;SDS011;8275;48.206;16.340;2022-11-09T01:16:18;17.58;;;14.75;;
16330;SDS011;8275;48.206;16.340;2022-11-09T01:18:51;24.35;;;16.95;;
16330;SDS011;8275;48.206;16.340;2022-11-09T01:21:21;21.33;;;16.50;;
16330;SDS011;8275;48.206;16.340;2022-11-09T01:23:49;19.08;;;16.90;;
16330;SDS011;8275;48.206;16.340;2022-11-09T01:26:18;29.15;;;16.23;;
16330;SDS011;8275;48.206;16.340;2022-11-09T01:28:46;23.73;;;18.60;;
16330;SDS011;8275;48.206;16.340;2022-11-09T01:31:17;24.30;;;19.27;;
16330;SDS011;8275;48.206;16.340;2022-11-09T01:33:47;24.15;;;18.05;;
16330;SDS011;8275;48.206;16.340;2022-11-09T01:36:17;22.48;;;17.05;;
16330;SDS011;8275;48.206;16.340;2022-11-09T01:38:47;30.02;;;19.80;;
16330;SDS011;8275;48.206;16.340;2022-11-09T01:41:17;23.08;;;16.63;;
16330;SDS011;8275;48.206;16.340;2022-11-09T01:44:04;28.70;;;18.10;;
16330;SDS011;8275;48.206;16.340;2022-11-09T01:46:39;24.70;;;17.95;;
16330;SDS011;8275;48.206;16.340;2022-11-09T01:49:18;24.48;;;17.98;;
16330;SDS011;8275;48.206;16.340;2022-11-09T01:52:04;22.25;;;15.48;;
16330;SDS011;8275;48.206;16.340;2022-11-09T01:54:38;20.55;;;16.02;;
16330;SDS011;8275;48.206;16.340;2022-11-09T01:57:12;17.38;;;15.10;;
16330;SDS011;8275;48.206;16.340;2022-11-09T01:59:46;26.05;;;18.33;;
16330;SDS011;8275;48.206;16.340;2022-11-09T02:02:22;19.85;;;15.52;;
16330;SDS011;8275;48.206;16.340;2022-11-09T02:04:53;18.45;;;16.35;;
16330;SDS011;8275;48.206;16.340;2022-11-09T02:07:26;19.38;;;16.30;;
16330;SDS011;8275;48.206;16.340;2022-11-09T02:09:57;25.83;;;18.20;;
16330;SDS011;8275;48.206;16.340;2022-11-09T02:12:30;20.17;;;16.70;;
16330;SDS011;8275;48.206;16.340;2022-11-09T02:15:02;24.02;;;18.08;;
16330;SDS011;8275;48.206;16.340;2022-11-09T02:17:34;20.27;;;17.08;;
16330;SDS011;8275;48.206;16.340;2022-11-09T02:20:07;24.45;;;18.75;;
16330;SDS011;8275;48.206;16.340;2022-11-09T02:22:38;31.70;;;20.15;;
16330;SDS011;8275;48.206;16.340;2022-11-09T02:25:08;20.00;;;16.17;;
16330;SDS011;8275;48.206;16.340;2022-11-09T02:27:38;27.85;;;18.85;;
16330;SDS011;8275;48.206;16.340;2022-11-09T02:30:09;21.08;;;16.65;;
16330;SDS011;8275;48.206;16.340;2022-11-09T02:32:39;22.70;;;16.38;;
16330;SDS011;8275;48.206;16.340;2022-11-09T02:35:09;19.08;;;15.88;;
16330;SDS011;8275;48.206;16.340;2022-11-09T02:37:39;22.30;;;16.95;;
16330;SDS011;8275;48.206;16.340;2022-11-09T02:40:16;18.58;;;15.45;;
16330;SDS011;8275;48.206;16.340;2022-11-09T02:42:47;25.00;;;17.73;;
16330;SDS011;8275;48.206;16.340;2022-11-09T02:45:15;22.70;;;14.80;;
16330;SDS011;8275;48.206;16.340;2022-11-09T02:47:44;19.35;;;16.15;;
16330;SDS011;8275;48.206;16.340;2022-11-09T02:50:14;29.40;;;18.80;;
16330;SDS011;8275;48.206;16.340;2022-11-09T02:52:42;23.35;;;17.50;;
16330;SDS011;8275;48.206;16.340;2022-11-09T02:55:11;20.67;;;17.20;;
16330;SDS011;8275;48.206;16.340;2022-11-09T02:57:41;22.17;;;17.50;;
16330;SDS011;8275;48.206;16.340;2022-11-09T03:00:10;22.50;;;17.50;;
16330;SDS011;8275;48.206;16.340;2022-11-09T03:02:39;18.88;;;15.60;;
16330;SDS011;8275;48.206;16.340;2022-11-09T03:05:08;38.05;;;15.38;;
16330;SDS011;8275;48.206;16.340;2022-11-09T03:07:38;31.48;;;21.05;;
16330;SDS011;8275;48.206;16.340;2022-11-09T03:10:07;23.65;;;16.85;;
16330;SDS011;8275;48.206;16.340;2022-11-09T03:12:36;19.05;;;15.90;;
16330;SDS011;8275;48.206;16.340;2022-11-09T03:15:05;23.83;;;17.20;;
16330;SDS011;8275;48.206;16.340;2022-11-09T03:17:35;20.40;;;16.33;;
16330;SDS011;8275;48.206;16.340;2022-11-09T03:20:04;19.13;;;14.10;;
16330;SDS011;8275;48.206;16.340;2022-11-09T03:22:34;22.83;;;16.65;;
16330;SDS011;8275;48.206;16.340;2022-11-09T03:25:05;23.88;;;17.80;;
16330;SDS011;8275;48.206;16.340;2022-11-09T03:27:34;19.48;;;14.95;;
16330;SDS011;8275;48.206;16.340;2022-11-09T03:30:03;23.90;;;16.10;;
16330;SDS011;8275;48.206;16.340;2022-11-09T03:32:33;20.67;;;15.77;;
16330;SDS011;8275;48.206;16.340;2022-11-09T03:35:01;18.48;;;15.45;;
16330;SDS011;8275;48.206;16.340;2022-11-09T03:37:30;19.10;;;15.75;;
16330;SDS011;8275;48.206;16.340;2022-11-09T03:39:58;21.10;;;15.73;;
16330;SDS011;8275;48.206;16.340;2022-11-09T03:42:28;20.00;;;15.68;;
16330;SDS011;8275;48.206;16.340;2022-11-09T03:44:56;18.08;;;15.85;;
16330;SDS011;8275;48.206;16.340;2022-11-09T03:47:25;26.13;;;17.75;;
16330;SDS011;8275;48.206;16.340;2022-11-09T03:49:53;21.17;;;15.65;;
16330;SDS011;8275;48.206;16.340;2022-11-09T03:52:21;21.00;;;14.57;;
16330;SDS011;8275;48.206;16.340;2022-11-09T03:54:50;17.73;;;15.27;;
16330;SDS011;8275;48.206;16.340;2022-11-09T03:57:18;19.25;;;14.23;;
16330;SDS011;8275;48.206;16.340;2022-11-09T03:59:48;19.83;;;16.58;;
16330;SDS011;8275;48.206;16.340;2022-11-09T04:02:16;19.13;;;14.80;;
16330;SDS011;8275;48.206;16.340;2022-11-09T04:04:45;21.30;;;16.77;;
16330;SDS011;8275;48.206;16.340;2022-11-09T04:07:13;20.05;;;15.55;;
16330;SDS011;8275;48.206;16.340;2022-11-09T04:09:42;21.75;;;15.95;;
16330;SDS011;8275;48.206;16.340;2022-11-09T04:12:10;21.30;;;16.95;;
16330;SDS011;8275;48.206;16.340;2022-11-09T04:14:39;25.85;;;15.82;;
16330;SDS011;8275;48.206;16.340;2022-11-09T04:17:08;19.00;;;14.40;;
16330;SDS011;8275;48.206;16.340;2022-11-09T04:19:37;24.77;;;18.30;;
16330;SDS011;8275;48.206;16.340;2022-11-09T04:22:05;18.70;;;15.98;;
16330;SDS011;8275;48.206;16.340;2022-11-09T04:24:34;25.85;;;16.48;;
16330;SDS011;8275;48.206;16.340;2022-11-09T04:27:02;24.92;;;17.73;;
16330;SDS011;8275;48.206;16.340;2022-11-09T04:29:31;17.73;;;15.80;;
16330;SDS011;8275;48.206;16.340;2022-11-09T04:31:59;21.75;;;17.08;;
16330;SDS011;8275;48.206;16.340;2022-11-09T04:34:29;25.80;;;17.88;;
16330;SDS011;8275;48.206;16.340;2022-11-09T04:36:57;23.70;;;17.40;;
16330;SDS011;8275;48.206;16.340;2022-11-09T04:39:26;23.70;;;18.40;;
16330;SDS011;8275;48.206;16.340;2022-11-09T04:41:54;21.02;;;15.32;;
16330;SDS011;8275;48.206;16.340;2022-11-09T04:44:22;20.85;;;15.82;;
16330;SDS011;8275;48.206;16.340;2022-11-09T04:46:51;22.33;;;15.57;;
16330;SDS011;8275;48.206;16.340;2022-11-09T04:49:19;18.95;;;15.30;;
16330;SDS011;8275;48.206;16.340;2022-11-09T04:51:49;17.02;;;14.93;;
16330;SDS011;8275;48.206;16.340;2022-11-09T04:54:18;20.15;;;15.65;;
16330;SDS011;8275;48.206;16.340;2022-11-09T04:56:46;20.23;;;16.50;;
16330;SDS011;8275;48.206;16.340;2022-11-09T04:59:14;19.17;;;14.63;;
16330;SDS011;8275;48.206;16.340;2022-11-09T05:01:43;17.48;;;14.73;;
16330;SDS011;8275;48.206;16.340;2022-11-09T05:04:11;23.75;;;17.50;;
16330;SDS011;8275;48.206;16.340;2022-11-09T05:06:40;16.80;;;13.95;;
16330;SDS011;8275;48.206;16.340;2022-11-09T05:09:10;18.75;;;16.95;;
16330;SDS011;8275;48.206;16.340;2022-11-09T05:11:38;24.70;;;17.10;;
16330;SDS011;8275;48.206;16.340;2022-11-09T05:14:06;18.23;;;16.33;;
16330;SDS011;8275;48.206;16.340;2022-11-09T05:16:35;20.15;;;17.25;;
16330;SDS011;8275;48.206;16.340;2022-11-09T05:19:03;19.20;;;14.27;;
16330;SDS011;8275;48.206;16.340;2022-11-09T05:21:32;26.38;;;16.75;;
16330;SDS011;8275;48.206;16.340;2022-11-09T05:24:00;19.90;;;16.27;;
16330;SDS011;8275;48.206;16.340;2022-11-09T05:26:30;25.83;;;18.67;;
16330;SDS011;8275;48.206;16.340;2022-11-09T05:29:01;20.95;;;15.80;;
16330;SDS011;8275;48.206;16.340;2022-11-09T05:31:32;22.60;;;17.25;;
16330;SDS011;8275;48.206;16.340;2022-11-09T05:34:01;21.58;;;16.05;;
16330;SDS011;8275;48.206;16.340;2022-11-09T05:36:31;22.42;;;15.48;;
16330;SDS011;8275;48.206;16.340;2022-11-09T05:38:59;21.88;;;16.42;;
16330;SDS011;8275;48.206;16.340;2022-11-09T05:41:29;17.52;;;15.43;;
16330;SDS011;8275;48.206;16.340;2022-11-09T05:43:58;21.45;;;16.92;;
16330;SDS011;8275;48.206;16.340;2022-11-09T05:46:26;17.98;;;15.25;;
16330;SDS011;8275;48.206;16.340;2022-11-09T05:48:56;19.15;;;15.50;;
16330;SDS011;8275;48.206;16.340;2022-11-09T05:51:25;21.35;;;16.85;;
16330;SDS011;8275;48.206;16.340;2022-11-09T05:53:53;25.17;;;16.17;;
16330;SDS011;8275;48.206;16.340;2022-11-09T05:56:22;18.55;;;14.48;;
16330;SDS011;8275;48.206;16.340;2022-11-09T05:58:51;22.08;;;17.13;;
16330;SDS011;8275;48.206;16.340;2022-11-09T06:01:20;19.10;;;13.73;;
16330;SDS011;8275;48.206;16.340;2022-11-09T06:03:48;24.05;;;16.65;;
16330;SDS011;8275;48.206;16.340;2022-11-09T06:06:19;20.42;;;15.38;;
16330;SDS011;8275;48.206;16.340;2022-11-09T06:08:48;24.85;;;16.60;;
16330;SDS011;8275;48.206;16.340;2022-11-09T06:11:16;17.83;;;14.57;;
16330;SDS011;8275;48.206;16.340;2022-11-09T06:13:49;20.88;;;13.20;;
16330;SDS011;8275;48.206;16.340;2022-11-09T06:16:19;25.13;;;15.63;;
16330;SDS011;8275;48.206;16.340;2022-11-09T06:18:48;22.55;;;17.08;;
16330;SDS011;8275;48.206;16.340;2022-11-09T06:21:16;21.58;;;15.68;;
16330;SDS011;8275;48.206;16.340;2022-11-09T06:23:45;20.17;;;14.65;;
16330;SDS011;8275;48.206;16.340;2022-11-09T06:26:13;21.38;;;16.17;;
16330;SDS011;8275;48.206;16.340;2022-11-09T06:28:41;17.77;;;16.00;;
16330;SDS011;8275;48.206;16.340;2022-11-09T06:31:12;20.10;;;16.80;;
16330;SDS011;8275;48.206;16.340;2022-11-09T06:33:42;19.63;;;15.82;;
16330;SDS011;8275;48.206;16.340;2022-11-09T06:36:11;19.50;;;13.55;;
16330;SDS011;8275;48.206;16.340;2022-11-09T06:38:39;20.13;;;15.68;;
16330;SDS011;8275;48.206;16.340;2022-11-09T06:41:08;25.40;;;15.45;;
16330;SDS011;8275;48.206;16.340;2022-11-09T06:43:37;21.42;;;15.93;;
16330;SDS011;8275;48.206;16.340;2022-11-09T06:46:05;18.52;;;13.70;;
16330;SDS011;8275;48.206;16.340;2022-11-09T06:48:37;22.67;;;14.20;;
16330;SDS011;8275;48.206;16.340;2022-11-09T06:51:06;20.25;;;17.00;;
16330;SDS011;8275;48.206;16.340;2022-11-09T06:53:34;19.48;;;16.75;;
16330;SDS011;8275;48.206;16.340;2022-11-09T06:56:04;17.50;;;15.63;;
16330;SDS011;8275;48.206;16.340;2022-11-09T06:58:34;20.58;;;16.38;;
16330;SDS011;8275;48.206;16.340;2022-11-09T07:01:07;18.42;;;15.70;;
16330;SDS011;8275;48.206;16.340;2022-11-09T07:03:39;20.42;;;15.35;;
16330;SDS011;8275;48.206;16.340;2022-11-09T07:06:08;20.42;;;15.50;;
16330;SDS011;8275;48.206;16.340;2022-11-09T07:08:38;21.20;;;17.60;;
16330;SDS011;8275;48.206;16.340;2022-11-09T07:11:08;21.23;;;14.35;;
16330;SDS011;8275;48.206;16.340;2022-11-09T07:13:39;18.42;;;15.52;;
16330;SDS011;8275;48.206;16.340;2022-11-09T07:16:07;20.90;;;14.73;;
16330;SDS011;8275;48.206;16.340;2022-11-09T07:18:39;23.52;;;17.75;;
16330;SDS011;8275;48.206;16.340;2022-11-09T07:21:08;21.38;;;14.73;;
16330;SDS011;8275;48.206;16.340;2022-11-09T07:23:39;22.00;;;16.83;;
16330;SDS011;8275;48.206;16.340;2022-11-09T07:26:08;18.27;;;13.55;;
16330;SDS011;8275;48.206;16.340;2022-11-09T07:28:37;17.95;;;13.60;;
16330;SDS011;8275;48.206;16.340;2022-11-09T07:31:05;22.00;;;15.43;;
16330;SDS011;8275;48.206;16.340;2022-11-09T07:33:35;15.48;;;13.65;;
16330;SDS011;8275;48.206;16.340;2022-11-09T07:36:05;19.52;;;13.27;;
16330;SDS011;8275;48.206;16.340;2022-11-09T07:38:34;17.52;;;13.75;;
16330;SDS011;8275;48.206;16.340;2022-11-09T07:41:02;21.85;;;14.98;;
16330;SDS011;8275;48.206;16.340;2022-11-09T07:43:31;18.02;;;14.15;;
16330;SDS011;8275;48.206;16.340;2022-11-09T07:46:01;17.05;;;13.15;;
16330;SDS011;8275;48.206;16.340;2022-11-09T07:48:31;13.52;;;12.13;;
16330;SDS011;8275;48.206;16.340;2022-11-09T07:51:00;15.70;;;14.07;;
16330;SDS011;8275;48.206;16.340;2022-11-09T07:53:30;15.70;;;11.25;;
16330;SDS011;8275;48.206;16.340;2022-11-09T07:55:59;15.50;;;12.50;;
16330;SDS011;8275;48.206;16.340;2022-11-09T07:58:29;16.30;;;14.43;;
16330;SDS011;8275;48.206;16.340;2022-11-09T08:00:59;17.48;;;14.48;;
16330;SDS011;8275;48.206;16.340;2022-11-09T08:03:28;22.25;;;14.13;;
16330;SDS011;8275;48.206;16.340;2022-11-09T08:05:56;17.90;;;12.65;;
16330;SDS011;8275;48.206;16.340;2022-11-09T08:08:25;14.00;;;12.60;;
16330;SDS011;8275;48.206;16.340;2022-11-09T08:10:56;15.30;;;12.25;;
16330;SDS011;8275;48.206;16.340;2022-11-09T08:13:25;15.73;;;13.05;;
16330;SDS011;8275;48.206;16.340;2022-11-09T08:15:53;14.23;;;12.50;;
16330;SDS011;8275;48.206;16.340;2022-11-09T08:18:22;18.15;;;13.10;;
16330;SDS011;8275;48.206;16.340;2022-11-09T08:20:50;17.80;;;13.80;;
16330;SDS011;8275;48.206;16.340;2022-11-09T08:23:19;16.65;;;12.65;;
16330;SDS011;8275;48.206;16.340;2022-11-09T08:25:48;15.68;;;12.82;;
16330;SDS011;8275;48.206;16.340;2022-11-09T08:28:18;21.00;;;13.88;;
16330;SDS011;8275;48.206;16.340;2022-11-09T08:30:53;18.95;;;14.50;;
16330;SDS011;8275;48.206;16.340;2022-11-09T08:33:23;16.42;;;13.02;;
16330;SDS011;8275;48.206;16.340;2022-11-09T08:35:53;17.48;;;14.80;;
16330;SDS011;8275;48.206;16.340;2022-11-09T08:38:22;16.65;;;14.40;;
16330;SDS011;8275;48.206;16.340;2022-11-09T08:40:54;15.55;;;13.93;;
16330;SDS011;8275;48.206;16.340;2022-11-09T08:43:25;16.17;;;12.38;;
16330;SDS011;8275;48.206;16.340;2022-11-09T08:45:54;14.85;;;13.32;;
16330;SDS011;8275;48.206;16.340;2022-11-09T08:48:22;16.58;;;12.63;;
16330;SDS011;8275;48.206;16.340;2022-11-09T08:50:51;14.80;;;13.05;;
16330;SDS011;8275;48.206;16.340;2022-11-09T08:53:20;15.73;;;12.38;;
16330;SDS011;8275;48.206;16.340;2022-11-09T08:55:50;16.15;;;13.23;;
16330;SDS011;8275;48.206;16.340;2022-11-09T08:58:19;14.20;;;12.70;;
16330;SDS011;8275;48.206;16.340;2022-11-09T09:00:49;17.55;;;13.75;;
16330;SDS011;8275;48.206;16.340;2022-11-09T09:03:18;17.67;;;14.35;;
16330;SDS011;8275;48.206;16.340;2022-11-09T09:05:46;19.85;;;12.60;;
16330;SDS011;8275;48.206;16.340;2022-11-09T09:08:15;15.95;;;10.63;;
16330;SDS011;8275;48.206;16.340;2022-11-09T09:10:47;16.83;;;13.40;;
16330;SDS011;8275;48.206;16.340;2022-11-09T09:13:16;17.65;;;14.00;;
16330;SDS011;8275;48.206;16.340;2022-11-09T09:15:49;14.10;;;12.20;;
16330;SDS011;8275;48.206;16.340;2022-11-09T09:18:17;15.93;;;11.73;;
16330;SDS011;8275;48.206;16.340;2022-11-09T09:20:47;16.73;;;12.90;;
16330;SDS011;8275;48.206;16.340;2022-11-09T09:23:15;17.92;;;13.02;;
16330;SDS011;8275;48.206;16.340;2022-11-09T09:25:44;17.75;;;11.05;;
16330;SDS011;8275;48.206;16.340;2022-11-09T09:28:13;15.60;;;13.73;;
16330;SDS011;8275;48.206;16.340;2022-11-09T09:30:42;16.27;;;12.77;;
16330;SDS011;8275;48.206;16.340;2022-11-09T09:33:12;17.10;;;11.90;;
16330;SDS011;8275;48.206;16.340;2022-11-09T09:35:40;18.20;;;10.93;;
16330;SDS011;8275;48.206;16.340;2022-11-09T09:38:09;14.18;;;12.88;;
16330;SDS011;8275;48.206;16.340;2022-11-09T09:40:39;18.50;;;14.57;;
16330;SDS011;8275;48.206;16.340;2022-11-09T09:43:25;16.92;;;15.25;;
16330;SDS011;8275;48.206;16.340;2022-11-09T09:45:59;18.42;;;12.35;;
16330;SDS011;8275;48.206;16.340;2022-11-09T09:48:35;13.52;;;11.40;;
16330;SDS011;8275;48.206;16.340;2022-11-09T09:51:10;13.00;;;11.20;;
16330;SDS011;8275;48.206;16.340;2022-11-09T09:53:48;14.63;;;11.45;;
16330;SDS011;8275;48.206;16.340;2022-11-09T09:56:23;10.55;;;9.50;;
16330;SDS011;8275;48.206;16.340;2022-11-09T09:58:57;16.75;;;11.32;;
16330;SDS011;8275;48.206;16.340;2022-11-09T10:01:35;12.57;;;11.23;;
16330;SDS011;8275;48.206;16.340;2022-11-09T10:04:14;17.05;;;11.73;;
16330;SDS011;8275;48.206;16.340;2022-11-09T10:06:51;18.38;;;14.52;;
16330;SDS011;8275;48.206;16.340;2022-11-09T10:09:39;13.50;;;10.98;;
16330;SDS011;8275;48.206;16.340;2022-11-09T10:12:40;12.90;;;9.77;;
16330;SDS011;8275;48.206;16.340;2022-11-09T10:15:47;13.32;;;9.02;;
16330;SDS011;8275;48.206;16.340;2022-11-09T10:18:33;11.73;;;9.85;;
16330;SDS011;8275;48.206;16.340;2022-11-09T10:21:29;12.48;;;10.63;;
16330;SDS011;8275;48.206;16.340;2022-11-09T10:24:12;15.82;;;10.23;;
16330;SDS011;8275;48.206;16.340;2022-11-09T10:26:54;14.98;;;11.52;;
16330;SDS011;8275;48.206;16.340;2022-11-09T10:29:24;18.10;;;10.55;;
16330;SDS011;8275;48.206;16.340;2022-11-09T10:32:00;11.40;;;10.23;;
16330;SDS011;8275;48.206;16.340;2022-11-09T10:34:40;16.75;;;12.23;;
16330;SDS011;8275;48.206;16.340;2022-11-09T10:37:19;13.18;;;10.27;;
16330;SDS011;8275;48.206;16.340;2022-11-09T10:39:55;9.85;;;8.85;;
16330;SDS011;8275;48.206;16.340;2022-11-09T10:42:29;14.30;;;10.15;;
16330;SDS011;8275;48.206;16.340;2022-11-09T10:44:58;12.45;;;11.13;;
16330;SDS011;8275;48.206;16.340;2022-11-09T10:47:47;11.68;;;8.40;;
16330;SDS011;8275;48.206;16.340;2022-11-09T10:50:20;12.02;;;10.80;;
16330;SDS011;8275;48.206;16.340;2022-11-09T10:53:16;13.07;;;10.88;;
16330;SDS011;8275;48.206;16.340;2022-11-09T10:55:48;12.90;;;10.63;;
16330;SDS011;8275;48.206;16.340;2022-11-09T10:58:22;10.15;;;9.07;;
16330;SDS011;8275;48.206;16.340;2022-11-09T11:00:59;11.77;;;10.55;;
16330;SDS011;8275;48.206;16.340;2022-11-09T11:03:31;10.88;;;9.60;;
16330;SDS011;8275;48.206;16.340;2022-11-09T11:06:03;10.45;;;8.63;;
16330;SDS011;8275;48.206;16.340;2022-11-09T11:08:36;15.23;;;10.98;;
16330;SDS011;8275;48.206;16.340;2022-11-09T11:11:14;14.52;;;10.43;;
16330;SDS011;8275;48.206;16.340;2022-11-09T11:14:05;12.10;;;9.85;;
16330;SDS011;8275;48.206;16.340;2022-11-09T11:16:48;17.02;;;12.93;;
16330;SDS011;8275;48.206;16.340;2022-11-09T11:19:26;13.57;;;11.88;;
16330;SDS011;8275;48.206;16.340;2022-11-09T11:24:55;10.25;;;9.20;;
16330;SDS011;8275;48.206;16.340;2022-11-09T11:27:31;9.07;;;8.27;;
16330;SDS011;8275;48.206;16.340;2022-11-09T11:30:09;11.43;;;8.75;;
16330;SDS011;8275;48.206;16.340;2022-11-09T11:32:42;12.85;;;9.02;;
16330;SDS011;8275;48.206;16.340;2022-11-09T11:35:17;11.27;;;9.60;;
16330;SDS011;8275;48.206;16.340;2022-11-09T11:38:00;13.43;;;9.77;;
16330;SDS011;8275;48.206;16.340;2022-11-09T11:40:41;13.48;;;9.75;;
16330;SDS011;8275;48.206;16.340;2022-11-09T11:43:22;10.82;;;9.57;;
16330;SDS011;8275;48.206;16.340;2022-11-09T11:46:10;13.90;;;11.75;;
16330;SDS011;8275;48.206;16.340;2022-11-09T11:49:04;12.60;;;10.25;;
16330;SDS011;8275;48.206;16.340;2022-11-09T11:52:09;13.25;;;11.73;;
16330;SDS011;8275;48.206;16.340;2022-11-09T11:54:49;13.07;;;9.88;;
16330;SDS011;8275;48.206;16.340;2022-11-09T12:00:55;11.45;;;9.05;;
16330;SDS011;8275;48.206;16.340;2022-11-09T12:03:37;12.32;;;10.15;;
16330;SDS011;8275;48.206;16.340;2022-11-09T12:06:22;10.88;;;9.55;;
16330;SDS011;8275;48.206;16.340;2022-11-09T12:09:14;12.25;;;11.05;;
16330;SDS011;8275;48.206;16.340;2022-11-09T12:11:58;11.93;;;10.32;;
16330;SDS011;8275;48.206;16.340;2022-11-09T12:14:43;21.20;;;12.05;;
16330;SDS011;8275;48.206;16.340;2022-11-09T12:17:27;12.10;;;10.90;;
16330;SDS011;8275;48.206;16.340;2022-11-09T12:20:20;15.32;;;12.52;;
16330;SDS011;8275;48.206;16.340;2022-11-09T12:22:59;18.35;;;11.27;;
16330;SDS011;8275;48.206;16.340;2022-11-09T12:25:45;12.30;;;10.27;;
16330;SDS011;8275;48.206;16.340;2022-11-09T12:28:37;14.55;;;9.75;;
16330;SDS011;8275;48.206;16.340;2022-11-09T12:31:30;18.33;;;12.68;;
16330;SDS011;8275;48.206;16.340;2022-11-09T12:34:13;17.38;;;14.20;;
16330;SDS011;8275;48.206;16.340;2022-11-09T12:36:50;21.85;;;18.42;;
16330;SDS011;8275;48.206;16.340;2022-11-09T12:39:25;14.32;;;12.40;;
16330;SDS011;8275;48.206;16.340;2022-11-09T12:42:02;15.73;;;12.10;;
16330;SDS011;8275;48.206;16.340;2022-11-09T12:44:37;13.57;;;10.07;;
16330;SDS011;8275;48.206;16.340;2022-11-09T12:47:15;13.10;;;9.43;;
16330;SDS011;8275;48.206;16.340;2022-11-09T12:49:49;13.23;;;10.40;;
16330;SDS011;8275;48.206;16.340;2022-11-09T12:52:20;14.00;;;10.65;;
16330;SDS011;8275;48.206;16.340;2022-11-09T12:54:54;15.98;;;11.30;;
16330;SDS011;8275;48.206;16.340;2022-11-09T12:57:24;13.45;;;9.68;;
16330;SDS011;8275;48.206;16.340;2022-11-09T12:59:55;10.32;;;7.85;;
16330;SDS011;8275;48.206;16.340;2022-11-09T13:02:30;11.98;;;9.93;;
16330;SDS011;8275;48.206;16.340;2022-11-09T13:05:02;12.77;;;10.63;;
16330;SDS011;8275;48.206;16.340;2022-11-09T13:07:44;14.60;;;10.75;;
16330;SDS011;8275;48.206;16.340;2022-11-09T13:10:29;16.65;;;13.07;;
16330;SDS011;8275;48.206;16.340;2022-11-09T13:13:04;15.15;;;10.35;;
16330;SDS011;8275;48.206;16.340;2022-11-09T13:19:09;14.38;;;11.30;;
16330;SDS011;8275;48.206;16.340;2022-11-09T13:21:38;14.57;;;10.50;;
16330;SDS011;8275;48.206;16.340;2022-11-09T13:27:34;13.88;;;10.20;;
16330;SDS011;8275;48.206;16.340;2022-11-09T13:33:17;11.27;;;9.32;;
16330;SDS011;8275;48.206;16.340;2022-11-09T13:36:11;13.13;;;8.30;;
16330;SDS011;8275;48.206;16.340;2022-11-09T13:41:55;11.90;;;10.10;;
16330;SDS011;8275;48.206;16.340;2022-11-09T13:44:25;15.95;;;11.60;;
16330;SDS011;8275;48.206;16.340;2022-11-09T13:47:01;13.30;;;8.80;;
16330;SDS011;8275;48.206;16.340;2022-11-09T13:49:37;11.73;;;10.05;;
16330;SDS011;8275;48.206;16.340;2022-11-09T13:55:25;13.73;;;10.50;;
16330;SDS011;8275;48.206;16.340;2022-11-09T13:58:00;21.70;;;12.00;;
16330;SDS011;8275;48.206;16.340;2022-11-09T14:00:51;12.20;;;10.20;;
16330;SDS011;8275;48.206;16.340;2022-11-09T14:03:21;16.02;;;11.13;;
16330;SDS011;8275;48.206;16.340;2022-11-09T14:05:52;13.13;;;10.70;;
16330;SDS011;8275;48.206;16.340;2022-11-09T14:08:26;14.65;;;11.65;;
16330;SDS011;8275;48.206;16.340;2022-11-09T14:14:16;11.48;;;9.10;;
16330;SDS011;8275;48.206;16.340;2022-11-09T14:17:19;11.55;;;9.63;;
16330;SDS011;8275;48.206;16.340;2022-11-09T14:19:57;12.18;;;9.25;;
16330;SDS011;8275;48.206;16.340;2022-11-09T14:22:37;16.55;;;13.15;;
16330;SDS011;8275;48.206;16.340;2022-11-09T14:25:15;15.15;;;10.63;;
16330;SDS011;8275;48.206;16.340;2022-11-09T14:27:47;11.85;;;9.63;;
16330;SDS011;8275;48.206;16.340;2022-11-09T14:30:22;14.73;;;11.32;;
16330;SDS011;8275;48.206;16.340;2022-11-09T14:32:56;13.82;;;10.50;;
16330;SDS011;8275;48.206;16.340;2022-11-09T14:35:26;14.10;;;10.50;;
16330;SDS011;8275;48.206;16.340;2022-11-09T14:37:59;12.40;;;9.68;;
16330;SDS011;8275;48.206;16.340;2022-11-09T14:40:43;13.75;;;9.98;;
16330;SDS011;8275;48.206;16.340;2022-11-09T14:43:19;12.98;;;11.35;;
16330;SDS011;8275;48.206;16.340;2022-11-09T14:45:54;18.15;;;10.93;;
16330;SDS011;8275;48.206;16.340;2022-11-09T14:48:25;11.52;;;10.40;;
16330;SDS011;8275;48.206;16.340;2022-11-09T14:50:56;12.82;;;10.13;;
16330;SDS011;8275;48.206;16.340;2022-11-09T14:53:28;15.60;;;13.13;;
16330;SDS011;8275;48.206;16.340;2022-11-09T14:56:03;14.90;;;11.98;;
16330;SDS011;8275;48.206;16.340;2022-11-09T14:58:35;15.63;;;11.32;;
16330;SDS011;8275;48.206;16.340;2022-11-09T15:01:08;18.95;;;14.88;;
16330;SDS011;8275;48.206;16.340;2022-11-09T15:06:35;15.15;;;10.07;;
16330;SDS011;8275;48.206;16.340;2022-11-09T15:09:13;13.23;;;11.90;;
16330;SDS011;8275;48.206;16.340;2022-11-09T15:11:46;15.25;;;11.90;;
16330;SDS011;8275;48.206;16.340;2022-11-09T15:14:21;12.55;;;9.90;;
16330;SDS011;8275;48.206;16.340;2022-11-09T15:17:04;16.15;;;13.45;;
16330;SDS011;8275;48.206;16.340;2022-11-09T15:19:46;17.98;;;13.13;;
16330;SDS011;8275;48.206;16.340;2022-11-09T15:22:36;11.98;;;10.13;;
16330;SDS011;8275;48.206;16.340;2022-11-09T15:25:19;15.18;;;10.00;;